createdAt,value
2018-07-06T00:00:44.767Z,77.40
2018-07-06T00:03:31.396Z,77.19
2018-07-06T00:06:17.866Z,77.54
2018-07-06T00:09:05.140Z,77.29
2018-07-06T00:11:51.495Z,78.12
2018-07-06T00:14:37.966Z,77.76
2018-07-06T00:17:18.474Z,78.05
2018-07-06T00:20:06.054Z,77.70
2018-07-06T00:22:46.576Z,78.04
2018-07-06T00:25:33.028Z,77.33
2018-07-06T00:28:13.398Z,77.88
2018-07-06T00:30:54.083Z,77.18
2018-07-06T00:33:40.383Z,77.09
2018-07-06T00:36:26.956Z,76.87
2018-07-06T00:39:07.437Z,76.77
2018-07-06T00:41:47.924Z,76.66
2018-07-06T00:44:34.421Z,76.93
2018-07-06T00:47:20.845Z,77.14
2018-07-06T00:50:07.262Z,76.10
2018-07-06T00:52:53.577Z,76.79
2018-07-06T00:55:39.878Z,76.74
2018-07-06T00:58:26.238Z,77.04
2018-07-06T01:01:12.617Z,76.86
2018-07-06T01:03:52.996Z,76.29
2018-07-06T01:06:40.508Z,76.94
2018-07-06T01:09:21.031Z,77.03
2018-07-06T01:12:13.080Z,76.85
2018-07-06T01:15:02.269Z,76.58
2018-07-06T01:17:42.872Z,77.14
2018-07-06T01:20:29.652Z,76.84
2018-07-06T01:23:10.092Z,76.91
2018-07-06T01:25:56.534Z,77.20
2018-07-06T01:28:43.010Z,77.93
2018-07-06T01:31:23.624Z,77.24
2018-07-06T01:34:10.157Z,77.28
2018-07-06T01:36:57.070Z,77.04
2018-07-06T01:39:43.519Z,77.62
2018-07-06T01:42:30.138Z,77.61
2018-07-06T01:45:16.882Z,77.54
2018-07-06T01:48:03.511Z,78.12
2018-07-06T01:50:50.057Z,77.56
2018-07-06T01:53:36.621Z,77.81
2018-07-06T01:56:23.067Z,78.18
2018-07-06T01:59:09.813Z,78.53
2018-07-06T02:01:56.195Z,78.93
2018-07-06T02:04:42.757Z,79.33
2018-07-06T02:07:29.293Z,79.13
2018-07-06T02:10:15.816Z,79.46
2018-07-06T02:13:02.402Z,79.27
2018-07-06T02:15:49.056Z,79.38
2018-07-06T02:18:29.478Z,79.50
2018-07-06T02:21:15.837Z,79.37
2018-07-06T02:24:02.671Z,79.32
2018-07-06T02:26:42.959Z,79.94
2018-07-06T02:29:29.877Z,79.90
2018-07-06T02:32:16.602Z,79.74
2018-07-06T02:35:03.165Z,80.55
2018-07-06T02:37:49.637Z,79.96
2018-07-06T02:40:36.135Z,80.21
2018-07-06T02:43:22.506Z,80.36
2018-07-06T02:46:08.997Z,80.55
2018-07-06T02:48:56.029Z,80.32
2018-07-06T02:51:42.618Z,80.52
2018-07-06T02:54:28.930Z,81.18
2018-07-06T02:57:15.258Z,80.92
2018-07-06T03:00:01.750Z,81.23
2018-07-06T03:02:48.262Z,81.14
2018-07-06T03:05:34.745Z,82.06
2018-07-06T03:08:21.072Z,82.73
2018-07-06T03:11:07.526Z,83.65
2018-07-06T03:13:48.092Z,83.67
2018-07-06T03:16:28.521Z,84.34
2018-07-06T03:19:14.923Z,83.94
2018-07-06T03:22:02.506Z,84.68
2018-07-06T03:24:49.221Z,85.94
2018-07-06T03:27:35.734Z,85.93
2018-07-06T03:30:22.353Z,86.58
2018-07-06T03:33:09.036Z,86.55
2018-07-06T03:35:55.487Z,86.75
2018-07-06T03:38:45.957Z,86.75
2018-07-06T03:41:32.542Z,87.66
2018-07-06T03:44:19.564Z,87.65
2018-07-06T03:47:06.101Z,88.08
2018-07-06T03:49:52.491Z,88.57
2018-07-06T03:52:38.887Z,89.01
2018-07-06T03:55:26.049Z,89.08
2018-07-06T03:58:12.654Z,89.32
2018-07-06T04:00:59.475Z,90.12
2018-07-06T04:03:46.144Z,90.25
2018-07-06T04:06:33.474Z,90.36
2018-07-06T04:09:20.323Z,90.51
2018-07-06T04:12:06.697Z,90.82
2018-07-06T04:14:53.088Z,90.84
2018-07-06T04:17:39.701Z,90.87
2018-07-06T04:20:26.471Z,91.89
2018-07-06T04:23:07.761Z,91.88
2018-07-06T04:25:54.508Z,92.92
2018-07-06T04:28:41.135Z,92.65
2018-07-06T04:31:27.743Z,93.10
2018-07-06T04:34:15.437Z,93.19
2018-07-06T04:37:02.049Z,93.26
2018-07-06T04:39:48.689Z,93.63
2018-07-06T04:42:35.397Z,92.63
2018-07-06T04:45:21.892Z,93.29
2018-07-06T04:48:08.352Z,93.63
2018-07-06T04:50:54.682Z,93.14
2018-07-06T04:53:41.501Z,93.99
2018-07-06T04:56:27.906Z,93.17
2018-07-06T04:59:14.538Z,93.24
2018-07-06T05:02:00.990Z,92.41
2018-07-06T05:04:47.514Z,92.45
2018-07-06T05:07:33.914Z,92.19
2018-07-06T05:10:20.244Z,92.83
2018-07-06T05:13:08.819Z,93.33
2018-07-06T05:15:55.482Z,93.36
2018-07-06T05:18:42.339Z,93.00
2018-07-06T05:21:29.506Z,92.52
2018-07-06T05:24:16.163Z,93.09
2018-07-06T05:27:02.740Z,92.57
2018-07-06T05:29:49.126Z,93.28
2018-07-06T05:32:35.745Z,92.86
2018-07-06T05:35:22.338Z,93.30
2018-07-06T05:38:09.047Z,93.57
2018-07-06T05:40:55.673Z,93.46
2018-07-06T05:43:42.154Z,93.32
2018-07-06T05:46:28.469Z,93.90
2018-07-06T05:49:14.775Z,93.77
2018-07-06T05:52:01.889Z,93.50
2018-07-06T05:54:48.370Z,93.62
2018-07-06T05:57:34.890Z,94.28
2018-07-06T06:00:21.604Z,94.14
2018-07-06T06:03:08.044Z,93.74
2018-07-06T06:05:54.933Z,93.38
2018-07-06T06:08:22.741Z,93.50
2018-07-06T06:10:52.769Z,93.57
2018-07-06T06:13:23.181Z,94.15
2018-07-06T06:15:54.821Z,93.32
2018-07-06T06:18:25.055Z,93.34
2018-07-06T06:20:55.766Z,92.81
2018-07-06T06:23:27.043Z,93.20
2018-07-06T06:25:56.548Z,93.32
2018-07-06T06:28:26.017Z,93.38
2018-07-06T06:30:57.405Z,93.10
2018-07-06T06:33:27.167Z,93.13
2018-07-06T06:35:56.992Z,92.68
2018-07-06T06:38:26.629Z,92.10
2018-07-06T06:40:56.557Z,91.66
2018-07-06T06:43:26.169Z,90.63
2018-07-06T06:45:55.805Z,90.30
2018-07-06T06:48:25.566Z,89.66
2018-07-06T06:50:55.211Z,90.12
2018-07-06T06:53:24.983Z,89.66
2018-07-06T06:55:55.518Z,89.89
2018-07-06T06:58:25.370Z,89.35
2018-07-06T07:00:55.080Z,88.96
2018-07-06T07:03:24.947Z,88.86
2018-07-06T07:05:54.754Z,89.13
2018-07-06T07:08:24.417Z,88.38
2018-07-06T07:10:53.952Z,88.38
2018-07-06T07:13:24.522Z,88.64
2018-07-06T07:15:54.372Z,88.31
2018-07-06T07:18:23.962Z,88.24
2018-07-06T07:20:54.036Z,87.67
2018-07-06T07:23:23.670Z,87.64
2018-07-06T07:25:53.488Z,87.52
2018-07-06T07:28:24.602Z,86.58
2018-07-06T07:30:55.341Z,87.03
2018-07-06T07:33:24.828Z,86.26
2018-07-06T07:35:55.177Z,86.16
2018-07-06T07:38:24.692Z,85.55
2018-07-06T07:40:54.402Z,86.00
2018-07-06T07:43:23.958Z,85.82
2018-07-06T07:45:53.904Z,85.07
2018-07-06T07:48:23.469Z,85.38
2018-07-06T07:51:10.030Z,85.22
2018-07-06T07:53:56.330Z,84.98
2018-07-06T07:56:26.423Z,85.41
2018-07-06T07:58:56.600Z,84.52
2018-07-06T08:01:26.191Z,84.80
2018-07-06T08:03:56.224Z,84.34
2018-07-06T08:06:25.782Z,82.99
2018-07-06T08:08:55.406Z,82.56
2018-07-06T08:11:25.525Z,81.34
2018-07-06T08:13:55.624Z,77.81
2018-07-06T08:16:25.016Z,77.22
2018-07-06T08:18:54.640Z,75.97
2018-07-06T08:21:24.330Z,76.32
2018-07-06T08:23:53.781Z,75.12
2018-07-06T08:26:23.430Z,74.65
2018-07-06T08:28:53.553Z,73.62
2018-07-06T08:31:23.071Z,72.79
2018-07-06T08:34:09.523Z,71.10
2018-07-06T08:38:07.255Z,69.24
2018-07-06T08:40:36.453Z,67.58
2018-07-06T08:43:06.874Z,66.14
2018-07-06T08:45:36.801Z,65.71
2018-07-06T08:48:06.285Z,65.26
2018-07-06T08:50:35.770Z,64.22
2018-07-06T08:53:05.218Z,63.93
2018-07-06T08:55:35.141Z,63.36
2018-07-06T08:58:04.635Z,64.02
2018-07-06T09:00:34.050Z,63.27
2018-07-06T09:03:03.837Z,62.73
2018-07-06T09:05:33.345Z,61.18
2018-07-06T09:08:02.927Z,60.26
2018-07-06T09:10:32.428Z,60.45
2018-07-06T09:13:02.257Z,61.67
2018-07-06T09:15:31.669Z,61.11
2018-07-06T09:18:01.783Z,60.63
2018-07-06T09:20:31.336Z,58.39
2018-07-06T09:23:00.882Z,59.05
2018-07-06T09:25:30.528Z,58.92
2018-07-06T09:27:59.925Z,57.28
2018-07-06T09:30:29.404Z,56.46
2018-07-06T09:32:58.818Z,56.18
2018-07-06T09:35:28.362Z,56.40
2018-07-06T09:37:57.821Z,58.10
2018-07-06T09:40:27.307Z,59.06
2018-07-06T09:42:57.466Z,57.95
2018-07-06T09:45:27.046Z,58.06
2018-07-06T09:47:56.589Z,58.59
2018-07-06T09:50:26.040Z,57.32
2018-07-06T09:52:55.722Z,58.40
2018-07-06T09:55:25.186Z,58.06
2018-07-06T09:57:54.758Z,57.74
2018-07-06T10:00:29.461Z,56.93
2018-07-06T10:02:58.905Z,54.80
2018-07-06T10:05:29.318Z,55.20
2018-07-06T10:07:58.870Z,56.43
2018-07-06T10:10:29.035Z,55.12
2018-07-06T10:12:58.212Z,55.21
2018-07-06T10:15:27.677Z,54.85
2018-07-06T10:17:58.246Z,53.87
2018-07-06T10:20:27.705Z,54.06
2018-07-06T10:22:57.150Z,55.23
2018-07-06T10:25:26.759Z,53.93
2018-07-06T10:29:10.925Z,53.80
2018-07-06T10:31:56.241Z,54.80
2018-07-06T10:34:25.617Z,54.52
2018-07-06T10:36:56.067Z,54.43
2018-07-06T10:39:26.193Z,52.93
2018-07-06T10:41:55.831Z,53.73
2018-07-06T10:44:25.375Z,53.90
2018-07-06T10:46:54.866Z,51.51
2018-07-06T10:49:25.393Z,51.93
2018-07-06T10:51:54.892Z,50.86
2018-07-06T10:54:24.452Z,51.11
2018-07-06T10:56:53.829Z,51.06
2018-07-06T10:59:24.187Z,54.18
2018-07-06T11:01:53.885Z,51.90
2018-07-06T11:04:23.041Z,52.65
2018-07-06T11:06:52.546Z,52.24
2018-07-06T11:09:22.119Z,52.93
2018-07-06T11:11:51.774Z,53.27
2018-07-06T11:14:21.512Z,53.77
2018-07-06T11:16:51.113Z,53.00
2018-07-06T11:19:20.712Z,51.98
2018-07-06T11:21:50.418Z,51.89
2018-07-06T11:24:19.920Z,51.15
2018-07-06T11:26:50.648Z,51.18
2018-07-06T11:29:20.657Z,51.92
2018-07-06T11:31:50.179Z,50.17
2018-07-06T11:34:19.900Z,51.67
2018-07-06T11:36:50.509Z,51.66
2018-07-06T11:39:22.566Z,50.00
2018-07-06T11:41:53.118Z,50.64
2018-07-06T11:44:26.016Z,49.70
2018-07-06T11:46:55.480Z,49.96
2018-07-06T11:49:25.180Z,49.53
2018-07-06T11:51:55.260Z,50.46
2018-07-06T11:54:24.749Z,49.35
2018-07-06T11:56:54.254Z,47.95
2018-07-06T11:59:23.638Z,49.76
2018-07-06T12:01:53.221Z,49.22
2018-07-06T12:04:23.067Z,48.01
2018-07-06T12:06:52.630Z,47.56
2018-07-06T12:09:22.819Z,48.26
2018-07-06T12:11:52.411Z,46.82
2018-07-06T12:14:21.921Z,45.50
2018-07-06T12:16:51.674Z,45.31
2018-07-06T12:19:21.754Z,44.84
2018-07-06T12:21:51.263Z,46.03
2018-07-06T12:24:20.866Z,45.63
2018-07-06T12:26:50.447Z,43.99
2018-07-06T12:29:19.927Z,42.31
2018-07-06T12:31:49.205Z,39.61
2018-07-06T12:34:18.764Z,40.33
2018-07-06T12:36:48.365Z,39.41
2018-07-06T12:39:17.789Z,38.72
2018-07-06T12:41:47.301Z,38.26
2018-07-06T12:44:17.097Z,37.39
2018-07-06T12:46:46.618Z,34.31
2018-07-06T12:49:16.082Z,35.69
2018-07-06T12:51:45.358Z,36.72
2018-07-06T12:54:15.030Z,38.21
2018-07-06T12:56:45.206Z,38.28
2018-07-06T12:59:14.758Z,36.88
2018-07-06T13:01:44.281Z,37.63
2018-07-06T13:04:13.997Z,35.06
2018-07-06T13:06:44.814Z,37.21
2018-07-06T13:09:14.326Z,37.40
2018-07-06T13:11:43.921Z,37.24
2018-07-06T13:14:13.429Z,37.47
2018-07-06T13:16:42.983Z,36.73
2018-07-06T13:19:12.868Z,36.10
2018-07-06T13:21:42.405Z,36.08
2018-07-06T13:24:11.980Z,33.71
2018-07-06T13:26:41.527Z,33.34
2018-07-06T13:29:11.013Z,35.01
2018-07-06T13:31:40.538Z,35.97
2018-07-06T13:34:10.283Z,36.10
2018-07-06T13:36:39.929Z,36.67
2018-07-06T13:39:09.576Z,35.88
2018-07-06T13:41:40.967Z,35.78
2018-07-06T13:44:10.484Z,33.66
2018-07-06T13:46:40.404Z,33.57
2018-07-06T13:49:09.964Z,33.96
2018-07-06T13:51:39.198Z,33.58
2018-07-06T13:54:09.367Z,34.20
2018-07-06T13:56:38.827Z,34.41
2018-07-06T13:59:08.445Z,33.67
2018-07-06T14:01:38.046Z,32.59
2018-07-06T14:04:07.548Z,33.88
2018-07-06T14:06:36.977Z,34.07
2018-07-06T14:09:07.520Z,33.55
2018-07-06T14:11:37.105Z,33.70
2018-07-06T14:14:06.710Z,33.21
2018-07-06T14:16:36.125Z,33.51
2018-07-06T14:19:05.649Z,32.86
2018-07-06T14:21:35.254Z,29.56
2018-07-06T14:24:04.842Z,29.18
2018-07-06T14:26:35.301Z,31.55
2018-07-06T14:29:04.893Z,30.66
2018-07-06T14:31:34.507Z,29.96
2018-07-06T14:34:04.137Z,28.76
2018-07-06T14:36:33.824Z,30.30
2018-07-06T14:39:03.359Z,29.18
2018-07-06T14:41:32.918Z,31.75
2018-07-06T14:44:02.481Z,32.66
2018-07-06T14:46:33.306Z,32.61
2018-07-06T14:49:03.080Z,33.20
2018-07-06T14:51:32.685Z,32.58
2018-07-06T14:54:02.116Z,31.52
2018-07-06T14:56:31.999Z,32.14
2018-07-06T14:59:01.395Z,32.02
2018-07-06T15:01:30.952Z,31.22
2018-07-06T15:04:00.649Z,31.55
2018-07-06T15:06:30.293Z,30.87
2018-07-06T15:08:59.805Z,32.49
2018-07-06T15:11:29.289Z,31.98
2018-07-06T15:13:58.753Z,32.73
2018-07-06T15:16:28.367Z,33.64
2018-07-06T15:18:57.929Z,32.62
2018-07-06T15:21:27.193Z,33.10
2018-07-06T15:23:56.694Z,34.19
2018-07-06T15:26:26.314Z,34.89
2018-07-06T15:28:56.858Z,34.02
2018-07-06T15:31:26.695Z,31.59
2018-07-06T15:33:56.777Z,32.62
2018-07-06T15:36:26.530Z,31.92
2018-07-06T15:38:55.910Z,32.38
2018-07-06T15:41:25.373Z,32.62
2018-07-06T15:43:54.978Z,34.34
2018-07-06T15:46:24.508Z,34.04
2018-07-06T15:48:53.960Z,35.50
2018-07-06T15:51:23.219Z,36.41
2018-07-06T15:53:52.798Z,36.57
2018-07-06T15:56:23.155Z,34.56
2018-07-06T15:58:52.660Z,35.38
2018-07-06T16:01:22.135Z,36.93
2018-07-06T16:03:51.709Z,35.60
2018-07-06T16:06:20.868Z,36.89
2018-07-06T16:08:50.394Z,37.61
2018-07-06T16:11:19.996Z,36.97
2018-07-06T16:13:49.684Z,35.75
2018-07-06T16:16:19.204Z,36.00
2018-07-06T16:18:49.032Z,36.54
2018-07-06T16:21:18.478Z,36.67
2018-07-06T16:23:48.172Z,36.78
2018-07-06T16:26:17.545Z,38.31
2018-07-06T16:28:47.114Z,39.83
2018-07-06T16:31:18.676Z,41.67
2018-07-06T16:33:48.276Z,41.74
2018-07-06T16:36:19.057Z,40.65
2018-07-06T16:38:53.855Z,41.46
2018-07-06T16:41:23.448Z,41.13
2018-07-06T16:43:54.007Z,39.69
2018-07-06T16:46:23.811Z,40.19
2018-07-06T16:48:53.438Z,39.46
2018-07-06T16:51:23.373Z,39.54
2018-07-06T16:53:53.057Z,40.25
2018-07-06T16:56:22.893Z,41.50
2018-07-06T16:58:52.962Z,41.44
2018-07-06T17:01:22.528Z,42.28
2018-07-06T17:03:52.322Z,41.78
2018-07-06T17:06:23.577Z,42.58
2018-07-06T17:08:53.029Z,42.63
2018-07-06T17:11:22.648Z,42.63
2018-07-06T17:13:52.258Z,41.80
2018-07-06T17:16:21.854Z,44.13
2018-07-06T17:18:51.471Z,45.67
2018-07-06T17:21:20.888Z,46.61
2018-07-06T17:23:50.408Z,47.40
2018-07-06T17:26:20.542Z,47.50
2018-07-06T17:28:50.050Z,47.52
2018-07-06T17:31:19.639Z,48.94
2018-07-06T17:33:49.236Z,49.75
2018-07-06T17:36:18.770Z,49.35
2018-07-06T17:38:48.325Z,51.22
2018-07-06T17:41:17.853Z,51.82
2018-07-06T17:43:47.550Z,51.91
2018-07-06T17:46:17.215Z,53.12
2018-07-06T17:48:47.297Z,54.37
2018-07-06T17:51:16.842Z,54.19
2018-07-06T17:53:46.362Z,53.57
2018-07-06T17:56:15.875Z,54.01
2018-07-06T17:58:45.849Z,54.78
2018-07-06T18:01:15.474Z,55.31
2018-07-06T18:03:44.993Z,55.34
2018-07-06T18:06:15.437Z,57.10
2018-07-06T18:08:44.930Z,58.04
2018-07-06T18:11:14.639Z,57.96
2018-07-06T18:13:44.275Z,57.89
2018-07-06T18:16:14.218Z,57.52
2018-07-06T18:18:43.742Z,58.49
2018-07-06T18:21:13.246Z,58.53
2018-07-06T18:23:42.827Z,58.89
2018-07-06T18:26:12.322Z,59.13
2018-07-06T18:28:41.453Z,59.82
2018-07-06T18:31:10.990Z,59.64
2018-07-06T18:33:40.677Z,60.45
2018-07-06T18:36:10.225Z,60.68
2018-07-06T18:38:40.034Z,60.91
2018-07-06T18:41:09.674Z,61.84
2018-07-06T18:43:39.185Z,62.19
2018-07-06T18:46:09.319Z,61.92
2018-07-06T18:48:38.846Z,62.19
2018-07-06T18:51:08.657Z,62.21
2018-07-06T18:53:39.006Z,62.63
2018-07-06T18:56:09.115Z,62.59
2018-07-06T18:58:39.354Z,63.10
2018-07-06T19:01:09.542Z,63.54
2018-07-06T19:03:39.220Z,63.19
2018-07-06T19:06:08.884Z,63.81
2018-07-06T19:08:38.328Z,63.66
2018-07-06T19:11:07.655Z,64.09
2018-07-06T19:13:37.098Z,64.63
2018-07-06T19:16:06.707Z,64.24
2018-07-06T19:18:36.345Z,65.10
2018-07-06T19:21:05.507Z,64.57
2018-07-06T19:23:34.938Z,64.95
2018-07-06T19:26:04.599Z,64.67
2018-07-06T19:28:34.151Z,65.25
2018-07-06T19:31:04.665Z,64.73
2018-07-06T19:33:34.157Z,65.12
2018-07-06T19:36:04.288Z,65.55
2018-07-06T19:38:33.833Z,65.54
2018-07-06T19:41:03.424Z,65.94
2018-07-06T19:43:34.024Z,66.57
2018-07-06T19:46:03.562Z,66.33
2018-07-06T19:48:33.466Z,66.05
2018-07-06T19:51:03.853Z,66.71
2018-07-06T19:53:33.649Z,66.50
2018-07-06T19:56:03.278Z,67.06
2018-07-06T19:58:33.714Z,67.29
2018-07-06T20:01:03.234Z,68.04
2018-07-06T20:03:32.890Z,67.80
2018-07-06T20:06:02.477Z,68.01
2018-07-06T20:08:31.989Z,68.12
2018-07-06T20:11:01.575Z,68.17
2018-07-06T20:13:31.393Z,68.55
2018-07-06T20:16:00.891Z,68.71
2018-07-06T20:18:30.813Z,68.57
2018-07-06T20:21:00.664Z,68.92
2018-07-06T20:23:30.898Z,69.67
2018-07-06T20:26:00.651Z,68.98
2018-07-06T20:28:30.188Z,69.23
2018-07-06T20:30:59.717Z,69.25
2018-07-06T20:33:29.136Z,69.59
2018-07-06T20:35:58.664Z,69.59
2018-07-06T20:38:28.270Z,70.00
2018-07-06T20:40:57.797Z,70.15
2018-07-06T20:43:27.254Z,70.36
2018-07-06T20:45:56.514Z,70.41
2018-07-06T20:48:26.101Z,70.92
2018-07-06T20:50:55.624Z,71.22
2018-07-06T20:53:26.113Z,71.50
2018-07-06T20:55:55.881Z,71.79
2018-07-06T20:58:25.372Z,71.21
2018-07-06T21:00:55.702Z,71.31
2018-07-06T21:03:25.300Z,72.05
2018-07-06T21:05:54.844Z,71.23
2018-07-06T21:08:24.392Z,71.93
2018-07-06T21:10:54.548Z,72.67
2018-07-06T21:13:25.093Z,72.46
2018-07-06T21:15:54.561Z,73.02
2018-07-06T21:18:24.595Z,72.83
2018-07-06T21:20:54.285Z,73.54
2018-07-06T21:23:23.814Z,73.49
2018-07-06T21:25:53.338Z,74.09
2018-07-06T21:28:23.009Z,74.13
2018-07-06T21:30:52.569Z,74.24
2018-07-06T21:33:22.051Z,74.19
2018-07-06T21:35:51.507Z,74.88
2018-07-06T21:38:21.369Z,74.05
2018-07-06T21:40:50.890Z,74.99
2018-07-06T21:43:20.370Z,74.47
2018-07-06T21:45:49.868Z,74.91
2018-07-06T21:48:19.407Z,74.82
2018-07-06T21:50:49.011Z,74.99
2018-07-06T21:53:19.020Z,74.96
2018-07-06T21:55:48.624Z,74.77
2018-07-06T21:58:18.360Z,75.01
2018-07-06T22:00:48.637Z,75.37
2018-07-06T22:03:18.203Z,75.46
2018-07-06T22:05:47.805Z,75.67
2018-07-06T22:08:17.328Z,75.45
2018-07-06T22:10:47.596Z,75.96
2018-07-06T22:13:17.138Z,75.79
2018-07-06T22:15:47.669Z,75.92
2018-07-06T22:18:18.615Z,75.90
2018-07-06T22:20:50.680Z,75.95
2018-07-06T22:23:20.164Z,75.99
2018-07-06T22:25:49.789Z,75.57
2018-07-06T22:28:19.280Z,76.03
2018-07-06T22:30:48.806Z,76.19
2018-07-06T22:33:18.789Z,76.58
2018-07-06T22:35:48.274Z,76.44
2018-07-06T22:38:17.785Z,76.30
2018-07-06T22:40:47.458Z,77.02
2018-07-06T22:43:17.176Z,77.29
2018-07-06T22:45:46.964Z,77.53
2018-07-06T22:48:17.011Z,77.69
2018-07-06T22:50:46.275Z,77.81
2018-07-06T22:53:16.438Z,78.44
2018-07-06T22:55:46.094Z,78.29
2018-07-06T22:58:15.596Z,78.08
2018-07-06T23:00:45.129Z,78.45
2018-07-06T23:03:15.389Z,78.00
2018-07-06T23:05:45.786Z,78.49
2018-07-06T23:08:15.242Z,78.62
2018-07-06T23:10:44.769Z,78.30
2018-07-06T23:13:14.300Z,78.80
2018-07-06T23:15:43.905Z,78.33
2018-07-06T23:18:13.536Z,78.78
2018-07-06T23:20:42.710Z,78.43
2018-07-06T23:23:13.336Z,78.40
2018-07-06T23:25:45.104Z,78.23
2018-07-06T23:28:17.062Z,78.06
2018-07-06T23:30:47.201Z,78.74
2018-07-06T23:33:16.716Z,78.13
2018-07-06T23:35:46.177Z,78.40
2018-07-06T23:38:16.854Z,78.39
2018-07-06T23:40:46.318Z,78.96
2018-07-06T23:43:16.854Z,79.12
2018-07-06T23:45:46.362Z,79.03
2018-07-06T23:48:15.896Z,79.01
2018-07-06T23:50:45.416Z,79.19
2018-07-06T23:53:15.188Z,78.88
2018-07-06T23:55:44.786Z,79.17
2018-07-06T23:58:14.325Z,78.89
